sensor_id;sensor_type;location;lat;lon;timestamp;P1;durP1;ratioP1;P2;durP2;ratioP2
4603;SDS011;2314;48.272;11.562;2023-08-06T00:02:11;22.50;;;10.90;;
4603;SDS011;2314;48.272;11.562;2023-08-06T00:04:38;19.23;;;10.37;;
4603;SDS011;2314;48.272;11.562;2023-08-06T00:07:05;16.20;;;9.83;;
4603;SDS011;2314;48.272;11.562;2023-08-06T00:09:32;22.00;;;10.00;;
4603;SDS011;2314;48.272;11.562;2023-08-06T00:11:59;14.97;;;9.10;;
4603;SDS011;2314;48.272;11.562;2023-08-06T00:14:27;16.17;;;9.70;;
4603;SDS011;2314;48.272;11.562;2023-08-06T00:16:54;16.00;;;9.30;;
4603;SDS011;2314;48.272;11.562;2023-08-06T00:19:21;14.87;;;8.80;;
4603;SDS011;2314;48.272;11.562;2023-08-06T00:21:48;15.93;;;9.03;;
4603;SDS011;2314;48.272;11.562;2023-08-06T00:24:15;15.43;;;9.87;;
4603;SDS011;2314;48.272;11.562;2023-08-06T00:26:42;17.97;;;10.00;;
4603;SDS011;2314;48.272;11.562;2023-08-06T00:29:09;16.53;;;10.00;;
4603;SDS011;2314;48.272;11.562;2023-08-06T00:31:37;18.33;;;10.93;;
4603;SDS011;2314;48.272;11.562;2023-08-06T00:34:04;18.90;;;10.00;;
4603;SDS011;2314;48.272;11.562;2023-08-06T00:36:31;17.70;;;10.60;;
4603;SDS011;2314;48.272;11.562;2023-08-06T00:38:58;14.97;;;8.40;;
4603;SDS011;2314;48.272;11.562;2023-08-06T00:41:25;16.70;;;9.10;;
4603;SDS011;2314;48.272;11.562;2023-08-06T00:43:52;14.60;;;8.63;;
4603;SDS011;2314;48.272;11.562;2023-08-06T00:46:19;15.10;;;9.83;;
4603;SDS011;2314;48.272;11.562;2023-08-06T00:48:47;18.50;;;9.37;;
4603;SDS011;2314;48.272;11.562;2023-08-06T00:51:15;16.70;;;9.03;;
4603;SDS011;2314;48.272;11.562;2023-08-06T00:53:42;14.63;;;8.53;;
4603;SDS011;2314;48.272;11.562;2023-08-06T00:56:09;11.43;;;7.83;;
4603;SDS011;2314;48.272;11.562;2023-08-06T00:58:37;16.73;;;7.90;;
4603;SDS011;2314;48.272;11.562;2023-08-06T01:01:05;11.37;;;6.90;;
4603;SDS011;2314;48.272;11.562;2023-08-06T01:03:32;11.10;;;7.83;;
4603;SDS011;2314;48.272;11.562;2023-08-06T01:06:01;16.03;;;8.30;;
4603;SDS011;2314;48.272;11.562;2023-08-06T01:08:30;14.30;;;8.23;;
4603;SDS011;2314;48.272;11.562;2023-08-06T01:11:10;14.23;;;8.13;;
4603;SDS011;2314;48.272;11.562;2023-08-06T01:13:49;11.77;;;8.23;;
4603;SDS011;2314;48.272;11.562;2023-08-06T01:16:22;11.43;;;6.80;;
4603;SDS011;2314;48.272;11.562;2023-08-06T01:18:51;13.90;;;7.80;;
4603;SDS011;2314;48.272;11.562;2023-08-06T01:21:19;12.83;;;7.27;;
4603;SDS011;2314;48.272;11.562;2023-08-06T01:23:46;11.20;;;7.57;;
4603;SDS011;2314;48.272;11.562;2023-08-06T01:26:15;14.53;;;7.47;;
4603;SDS011;2314;48.272;11.562;2023-08-06T01:29:03;14.83;;;8.23;;
4603;SDS011;2314;48.272;11.562;2023-08-06T01:31:37;17.23;;;9.70;;
4603;SDS011;2314;48.272;11.562;2023-08-06T01:34:06;15.47;;;9.00;;
4603;SDS011;2314;48.272;11.562;2023-08-06T01:36:39;16.17;;;7.50;;
4603;SDS011;2314;48.272;11.562;2023-08-06T01:39:07;12.50;;;7.00;;
4603;SDS011;2314;48.272;11.562;2023-08-06T01:41:34;14.93;;;8.90;;
4603;SDS011;2314;48.272;11.562;2023-08-06T01:44:01;15.80;;;9.40;;
4603;SDS011;2314;48.272;11.562;2023-08-06T01:46:28;11.50;;;7.27;;
4603;SDS011;2314;48.272;11.562;2023-08-06T01:48:55;16.97;;;9.10;;
4603;SDS011;2314;48.272;11.562;2023-08-06T01:51:22;14.13;;;8.90;;
4603;SDS011;2314;48.272;11.562;2023-08-06T01:53:51;20.03;;;7.83;;
4603;SDS011;2314;48.272;11.562;2023-08-06T01:56:18;15.33;;;9.20;;
4603;SDS011;2314;48.272;11.562;2023-08-06T01:58:45;15.13;;;8.40;;
4603;SDS011;2314;48.272;11.562;2023-08-06T02:01:12;19.80;;;8.70;;
4603;SDS011;2314;48.272;11.562;2023-08-06T02:03:39;16.30;;;9.07;;
4603;SDS011;2314;48.272;11.562;2023-08-06T02:06:06;14.97;;;8.77;;
4603;SDS011;2314;48.272;11.562;2023-08-06T02:08:33;15.20;;;8.87;;
4603;SDS011;2314;48.272;11.562;2023-08-06T02:11:02;14.43;;;9.30;;
4603;SDS011;2314;48.272;11.562;2023-08-06T02:13:28;15.40;;;8.73;;
4603;SDS011;2314;48.272;11.562;2023-08-06T02:15:55;13.27;;;8.17;;
4603;SDS011;2314;48.272;11.562;2023-08-06T02:18:22;12.73;;;8.13;;
4603;SDS011;2314;48.272;11.562;2023-08-06T02:20:56;12.00;;;7.83;;
4603;SDS011;2314;48.272;11.562;2023-08-06T02:23:23;14.70;;;8.93;;
4603;SDS011;2314;48.272;11.562;2023-08-06T02:25:56;14.93;;;9.60;;
4603;SDS011;2314;48.272;11.562;2023-08-06T02:28:26;14.30;;;7.90;;
4603;SDS011;2314;48.272;11.562;2023-08-06T02:30:53;14.73;;;8.87;;
4603;SDS011;2314;48.272;11.562;2023-08-06T02:33:20;21.10;;;9.43;;
4603;SDS011;2314;48.272;11.562;2023-08-06T02:35:47;17.33;;;9.40;;
4603;SDS011;2314;48.272;11.562;2023-08-06T02:38:14;15.90;;;9.60;;
4603;SDS011;2314;48.272;11.562;2023-08-06T02:40:44;15.30;;;9.07;;
4603;SDS011;2314;48.272;11.562;2023-08-06T02:43:11;15.63;;;8.33;;
4603;SDS011;2314;48.272;11.562;2023-08-06T02:45:40;19.03;;;8.07;;
4603;SDS011;2314;48.272;11.562;2023-08-06T02:48:06;16.00;;;8.60;;
4603;SDS011;2314;48.272;11.562;2023-08-06T02:50:37;14.40;;;8.40;;
4603;SDS011;2314;48.272;11.562;2023-08-06T02:53:05;12.47;;;7.93;;
4603;SDS011;2314;48.272;11.562;2023-08-06T02:55:32;11.03;;;6.90;;
4603;SDS011;2314;48.272;11.562;2023-08-06T02:57:59;16.63;;;8.30;;
4603;SDS011;2314;48.272;11.562;2023-08-06T03:00:27;13.40;;;7.80;;
4603;SDS011;2314;48.272;11.562;2023-08-06T03:02:55;16.30;;;8.60;;
4603;SDS011;2314;48.272;11.562;2023-08-06T03:05:22;16.03;;;9.17;;
4603;SDS011;2314;48.272;11.562;2023-08-06T03:07:49;16.97;;;8.43;;
4603;SDS011;2314;48.272;11.562;2023-08-06T03:10:16;12.03;;;8.30;;
4603;SDS011;2314;48.272;11.562;2023-08-06T03:12:45;15.63;;;9.03;;
4603;SDS011;2314;48.272;11.562;2023-08-06T03:15:12;16.60;;;8.23;;
4603;SDS011;2314;48.272;11.562;2023-08-06T03:17:39;13.97;;;8.27;;
4603;SDS011;2314;48.272;11.562;2023-08-06T03:20:07;13.13;;;7.87;;
4603;SDS011;2314;48.272;11.562;2023-08-06T03:22:35;15.40;;;8.17;;
4603;SDS011;2314;48.272;11.562;2023-08-06T03:25:02;15.00;;;7.77;;
4603;SDS011;2314;48.272;11.562;2023-08-06T03:27:31;13.63;;;7.70;;
4603;SDS011;2314;48.272;11.562;2023-08-06T03:29:57;11.90;;;7.10;;
4603;SDS011;2314;48.272;11.562;2023-08-06T03:32:26;15.87;;;8.07;;
4603;SDS011;2314;48.272;11.562;2023-08-06T03:34:53;11.77;;;6.40;;
4603;SDS011;2314;48.272;11.562;2023-08-06T03:37:21;14.50;;;8.17;;
4603;SDS011;2314;48.272;11.562;2023-08-06T03:39:48;10.47;;;6.30;;
4603;SDS011;2314;48.272;11.562;2023-08-06T03:42:15;12.83;;;6.60;;
4603;SDS011;2314;48.272;11.562;2023-08-06T03:44:42;14.83;;;7.27;;
4603;SDS011;2314;48.272;11.562;2023-08-06T03:47:09;12.70;;;7.47;;
4603;SDS011;2314;48.272;11.562;2023-08-06T03:49:36;15.00;;;7.20;;
4603;SDS011;2314;48.272;11.562;2023-08-06T03:52:03;13.07;;;7.67;;
4603;SDS011;2314;48.272;11.562;2023-08-06T03:54:32;11.27;;;7.00;;
4603;SDS011;2314;48.272;11.562;2023-08-06T03:56:59;12.20;;;7.13;;
4603;SDS011;2314;48.272;11.562;2023-08-06T03:59:26;11.50;;;7.50;;
4603;SDS011;2314;48.272;11.562;2023-08-06T04:01:53;10.97;;;6.80;;
4603;SDS011;2314;48.272;11.562;2023-08-06T04:04:20;15.37;;;7.17;;
4603;SDS011;2314;48.272;11.562;2023-08-06T04:06:47;12.77;;;7.40;;
4603;SDS011;2314;48.272;11.562;2023-08-06T04:09:14;19.23;;;7.07;;
4603;SDS011;2314;48.272;11.562;2023-08-06T04:11:43;10.40;;;6.50;;
4603;SDS011;2314;48.272;11.562;2023-08-06T04:14:10;9.90;;;6.20;;
4603;SDS011;2314;48.272;11.562;2023-08-06T04:16:37;12.10;;;6.60;;
4603;SDS011;2314;48.272;11.562;2023-08-06T04:19:04;15.30;;;5.63;;
4603;SDS011;2314;48.272;11.562;2023-08-06T04:21:31;12.83;;;6.60;;
4603;SDS011;2314;48.272;11.562;2023-08-06T04:23:58;9.77;;;5.90;;
4603;SDS011;2314;48.272;11.562;2023-08-06T04:26:26;9.87;;;5.60;;
4603;SDS011;2314;48.272;11.562;2023-08-06T04:28:54;8.60;;;5.60;;
4603;SDS011;2314;48.272;11.562;2023-08-06T04:31:21;9.80;;;5.30;;
4603;SDS011;2314;48.272;11.562;2023-08-06T04:33:49;11.13;;;5.63;;
4603;SDS011;2314;48.272;11.562;2023-08-06T04:36:16;9.13;;;5.73;;
4603;SDS011;2314;48.272;11.562;2023-08-06T04:38:43;7.27;;;4.70;;
4603;SDS011;2314;48.272;11.562;2023-08-06T04:41:12;8.17;;;5.20;;
4603;SDS011;2314;48.272;11.562;2023-08-06T04:43:40;7.70;;;4.73;;
4603;SDS011;2314;48.272;11.562;2023-08-06T04:46:09;8.07;;;5.40;;
4603;SDS011;2314;48.272;11.562;2023-08-06T04:48:36;10.30;;;5.00;;
4603;SDS011;2314;48.272;11.562;2023-08-06T04:51:03;7.97;;;4.40;;
4603;SDS011;2314;48.272;11.562;2023-08-06T04:53:30;9.53;;;4.30;;
4603;SDS011;2314;48.272;11.562;2023-08-06T04:55:57;7.93;;;3.50;;
4603;SDS011;2314;48.272;11.562;2023-08-06T04:58:24;9.70;;;4.53;;
4603;SDS011;2314;48.272;11.562;2023-08-06T05:00:51;11.77;;;5.47;;
4603;SDS011;2314;48.272;11.562;2023-08-06T05:03:21;8.57;;;4.97;;
4603;SDS011;2314;48.272;11.562;2023-08-06T05:05:49;8.00;;;4.23;;
4603;SDS011;2314;48.272;11.562;2023-08-06T05:08:16;9.47;;;4.57;;
4603;SDS011;2314;48.272;11.562;2023-08-06T05:10:43;11.30;;;4.37;;
4603;SDS011;2314;48.272;11.562;2023-08-06T05:13:10;8.07;;;4.00;;
4603;SDS011;2314;48.272;11.562;2023-08-06T05:15:38;6.63;;;4.07;;
4603;SDS011;2314;48.272;11.562;2023-08-06T05:18:07;8.00;;;4.40;;
4603;SDS011;2314;48.272;11.562;2023-08-06T05:20:37;11.53;;;4.30;;
4603;SDS011;2314;48.272;11.562;2023-08-06T05:23:04;7.93;;;4.30;;
4603;SDS011;2314;48.272;11.562;2023-08-06T05:25:31;5.70;;;3.50;;
4603;SDS011;2314;48.272;11.562;2023-08-06T05:28:00;6.53;;;3.97;;
4603;SDS011;2314;48.272;11.562;2023-08-06T05:30:27;7.03;;;4.10;;
4603;SDS011;2314;48.272;11.562;2023-08-06T05:32:55;8.30;;;3.73;;
4603;SDS011;2314;48.272;11.562;2023-08-06T05:35:22;8.70;;;3.47;;
4603;SDS011;2314;48.272;11.562;2023-08-06T05:37:50;6.83;;;4.23;;
4603;SDS011;2314;48.272;11.562;2023-08-06T05:40:18;7.17;;;4.37;;
4603;SDS011;2314;48.272;11.562;2023-08-06T05:42:45;6.30;;;4.13;;
4603;SDS011;2314;48.272;11.562;2023-08-06T05:45:12;10.03;;;3.90;;
4603;SDS011;2314;48.272;11.562;2023-08-06T05:47:40;6.80;;;3.83;;
4603;SDS011;2314;48.272;11.562;2023-08-06T05:50:07;6.80;;;3.90;;
4603;SDS011;2314;48.272;11.562;2023-08-06T05:52:35;6.03;;;4.00;;
4603;SDS011;2314;48.272;11.562;2023-08-06T05:55:04;7.20;;;3.33;;
4603;SDS011;2314;48.272;11.562;2023-08-06T05:57:32;6.30;;;3.50;;
4603;SDS011;2314;48.272;11.562;2023-08-06T05:59:59;9.70;;;3.60;;
4603;SDS011;2314;48.272;11.562;2023-08-06T06:02:27;7.50;;;3.93;;
4603;SDS011;2314;48.272;11.562;2023-08-06T06:04:54;6.87;;;3.60;;
4603;SDS011;2314;48.272;11.562;2023-08-06T06:07:21;6.93;;;3.10;;
4603;SDS011;2314;48.272;11.562;2023-08-06T06:09:48;4.50;;;2.93;;
4603;SDS011;2314;48.272;11.562;2023-08-06T06:12:16;5.17;;;3.53;;
4603;SDS011;2314;48.272;11.562;2023-08-06T06:14:44;7.30;;;3.47;;
4603;SDS011;2314;48.272;11.562;2023-08-06T06:17:11;5.83;;;2.93;;
4603;SDS011;2314;48.272;11.562;2023-08-06T06:19:38;6.30;;;3.27;;
4603;SDS011;2314;48.272;11.562;2023-08-06T06:22:05;4.33;;;2.50;;
4603;SDS011;2314;48.272;11.562;2023-08-06T06:24:32;4.80;;;2.53;;
4603;SDS011;2314;48.272;11.562;2023-08-06T06:26:59;8.17;;;2.70;;
4603;SDS011;2314;48.272;11.562;2023-08-06T06:29:28;6.20;;;2.83;;
4603;SDS011;2314;48.272;11.562;2023-08-06T06:31:55;4.47;;;2.33;;
4603;SDS011;2314;48.272;11.562;2023-08-06T06:34:22;3.93;;;1.90;;
4603;SDS011;2314;48.272;11.562;2023-08-06T06:36:49;6.10;;;2.30;;
4603;SDS011;2314;48.272;11.562;2023-08-06T06:39:17;7.07;;;2.60;;
4603;SDS011;2314;48.272;11.562;2023-08-06T06:41:44;3.77;;;2.00;;
4603;SDS011;2314;48.272;11.562;2023-08-06T06:44:11;5.10;;;2.77;;
4603;SDS011;2314;48.272;11.562;2023-08-06T06:46:41;9.43;;;2.90;;
4603;SDS011;2314;48.272;11.562;2023-08-06T06:49:08;4.20;;;2.10;;
4603;SDS011;2314;48.272;11.562;2023-08-06T06:51:35;4.73;;;2.00;;
4603;SDS011;2314;48.272;11.562;2023-08-06T06:54:02;5.20;;;2.43;;
4603;SDS011;2314;48.272;11.562;2023-08-06T06:56:29;3.53;;;1.97;;
4603;SDS011;2314;48.272;11.562;2023-08-06T06:58:56;6.33;;;2.13;;
4603;SDS011;2314;48.272;11.562;2023-08-06T07:01:23;6.43;;;2.00;;
4603;SDS011;2314;48.272;11.562;2023-08-06T07:03:51;6.60;;;1.97;;
4603;SDS011;2314;48.272;11.562;2023-08-06T07:06:18;4.97;;;2.00;;
4603;SDS011;2314;48.272;11.562;2023-08-06T07:08:45;9.33;;;2.83;;
4603;SDS011;2314;48.272;11.562;2023-08-06T07:11:18;3.70;;;1.70;;
4603;SDS011;2314;48.272;11.562;2023-08-06T07:13:45;4.20;;;1.77;;
4603;SDS011;2314;48.272;11.562;2023-08-06T07:16:12;2.73;;;1.40;;
4603;SDS011;2314;48.272;11.562;2023-08-06T07:18:39;3.07;;;1.50;;
4603;SDS011;2314;48.272;11.562;2023-08-06T07:21:08;4.07;;;1.27;;
4603;SDS011;2314;48.272;11.562;2023-08-06T07:23:35;5.50;;;1.30;;
4603;SDS011;2314;48.272;11.562;2023-08-06T07:26:02;5.00;;;1.23;;
4603;SDS011;2314;48.272;11.562;2023-08-06T07:28:29;2.73;;;1.00;;
4603;SDS011;2314;48.272;11.562;2023-08-06T07:30:58;3.70;;;1.17;;
4603;SDS011;2314;48.272;11.562;2023-08-06T07:33:25;2.97;;;1.20;;
4603;SDS011;2314;48.272;11.562;2023-08-06T07:35:52;2.67;;;1.00;;
4603;SDS011;2314;48.272;11.562;2023-08-06T07:38:20;2.50;;;1.00;;
4603;SDS011;2314;48.272;11.562;2023-08-06T07:40:47;6.83;;;0.90;;
4603;SDS011;2314;48.272;11.562;2023-08-06T07:43:14;2.57;;;1.10;;
4603;SDS011;2314;48.272;11.562;2023-08-06T07:45:41;2.63;;;1.17;;
4603;SDS011;2314;48.272;11.562;2023-08-06T07:48:08;2.40;;;0.90;;
4603;SDS011;2314;48.272;11.562;2023-08-06T07:50:35;3.17;;;1.10;;
4603;SDS011;2314;48.272;11.562;2023-08-06T07:53:02;2.43;;;0.80;;
4603;SDS011;2314;48.272;11.562;2023-08-06T07:55:30;4.83;;;1.10;;
4603;SDS011;2314;48.272;11.562;2023-08-06T07:57:57;2.30;;;1.10;;
4603;SDS011;2314;48.272;11.562;2023-08-06T08:00:25;3.17;;;1.03;;
4603;SDS011;2314;48.272;11.562;2023-08-06T08:02:52;2.40;;;0.93;;
4603;SDS011;2314;48.272;11.562;2023-08-06T08:05:19;3.63;;;1.00;;
4603;SDS011;2314;48.272;11.562;2023-08-06T08:07:46;2.50;;;0.93;;
4603;SDS011;2314;48.272;11.562;2023-08-06T08:10:13;3.20;;;1.03;;
4603;SDS011;2314;48.272;11.562;2023-08-06T08:12:41;2.63;;;0.90;;
4603;SDS011;2314;48.272;11.562;2023-08-06T08:15:08;2.50;;;0.80;;
4603;SDS011;2314;48.272;11.562;2023-08-06T08:17:36;3.50;;;0.90;;
4603;SDS011;2314;48.272;11.562;2023-08-06T08:20:03;4.37;;;1.00;;
4603;SDS011;2314;48.272;11.562;2023-08-06T08:22:32;3.20;;;0.80;;
4603;SDS011;2314;48.272;11.562;2023-08-06T08:24:59;2.10;;;0.90;;
4603;SDS011;2314;48.272;11.562;2023-08-06T08:27:26;5.43;;;0.80;;
4603;SDS011;2314;48.272;11.562;2023-08-06T08:29:56;3.07;;;1.10;;
4603;SDS011;2314;48.272;11.562;2023-08-06T08:32:23;2.57;;;0.93;;
4603;SDS011;2314;48.272;11.562;2023-08-06T08:34:50;4.33;;;1.00;;
4603;SDS011;2314;48.272;11.562;2023-08-06T08:37:18;2.10;;;0.80;;
4603;SDS011;2314;48.272;11.562;2023-08-06T08:39:45;1.93;;;0.80;;
4603;SDS011;2314;48.272;11.562;2023-08-06T08:42:12;3.23;;;1.00;;
4603;SDS011;2314;48.272;11.562;2023-08-06T08:44:39;2.10;;;0.97;;
4603;SDS011;2314;48.272;11.562;2023-08-06T08:47:10;3.80;;;1.20;;
4603;SDS011;2314;48.272;11.562;2023-08-06T08:49:37;3.30;;;0.80;;
4603;SDS011;2314;48.272;11.562;2023-08-06T08:52:06;2.20;;;1.00;;
4603;SDS011;2314;48.272;11.562;2023-08-06T08:54:37;2.97;;;0.80;;
4603;SDS011;2314;48.272;11.562;2023-08-06T08:57:06;2.63;;;0.80;;
4603;SDS011;2314;48.272;11.562;2023-08-06T08:59:33;1.70;;;0.70;;
4603;SDS011;2314;48.272;11.562;2023-08-06T09:02:00;3.00;;;0.70;;
4603;SDS011;2314;48.272;11.562;2023-08-06T09:04:30;3.30;;;1.00;;
4603;SDS011;2314;48.272;11.562;2023-08-06T09:06:58;2.67;;;0.90;;
4603;SDS011;2314;48.272;11.562;2023-08-06T09:09:26;5.00;;;0.90;;
4603;SDS011;2314;48.272;11.562;2023-08-06T09:12:00;3.83;;;0.90;;
4603;SDS011;2314;48.272;11.562;2023-08-06T09:14:28;2.30;;;0.70;;
4603;SDS011;2314;48.272;11.562;2023-08-06T09:16:56;2.20;;;0.80;;
4603;SDS011;2314;48.272;11.562;2023-08-06T09:19:23;2.33;;;0.70;;
4603;SDS011;2314;48.272;11.562;2023-08-06T09:21:52;2.37;;;0.90;;
4603;SDS011;2314;48.272;11.562;2023-08-06T09:24:21;1.70;;;0.60;;
4603;SDS011;2314;48.272;11.562;2023-08-06T09:26:49;2.30;;;0.73;;
4603;SDS011;2314;48.272;11.562;2023-08-06T09:29:16;1.90;;;0.67;;
4603;SDS011;2314;48.272;11.562;2023-08-06T09:31:43;4.90;;;0.90;;
4603;SDS011;2314;48.272;11.562;2023-08-06T09:34:17;1.87;;;0.70;;
4603;SDS011;2314;48.272;11.562;2023-08-06T09:36:47;3.03;;;0.93;;
4603;SDS011;2314;48.272;11.562;2023-08-06T09:39:18;3.27;;;0.80;;
4603;SDS011;2314;48.272;11.562;2023-08-06T09:41:47;2.67;;;0.80;;
4603;SDS011;2314;48.272;11.562;2023-08-06T09:44:17;3.10;;;0.70;;
4603;SDS011;2314;48.272;11.562;2023-08-06T09:46:47;1.80;;;0.70;;
4603;SDS011;2314;48.272;11.562;2023-08-06T09:49:14;2.63;;;0.67;;
4603;SDS011;2314;48.272;11.562;2023-08-06T09:51:41;1.80;;;0.50;;
4603;SDS011;2314;48.272;11.562;2023-08-06T09:54:09;1.90;;;0.60;;
4603;SDS011;2314;48.272;11.562;2023-08-06T09:56:40;1.97;;;0.70;;
4603;SDS011;2314;48.272;11.562;2023-08-06T09:59:08;2.63;;;0.70;;
4603;SDS011;2314;48.272;11.562;2023-08-06T10:01:36;1.63;;;0.60;;
4603;SDS011;2314;48.272;11.562;2023-08-06T10:04:04;3.37;;;0.70;;
4603;SDS011;2314;48.272;11.562;2023-08-06T10:06:34;1.80;;;0.70;;
4603;SDS011;2314;48.272;11.562;2023-08-06T10:09:02;6.57;;;0.70;;
4603;SDS011;2314;48.272;11.562;2023-08-06T10:11:29;1.87;;;0.60;;
4603;SDS011;2314;48.272;11.562;2023-08-06T10:14:00;1.70;;;0.60;;
4603;SDS011;2314;48.272;11.562;2023-08-06T10:16:33;2.43;;;0.60;;
4603;SDS011;2314;48.272;11.562;2023-08-06T10:19:01;2.10;;;0.60;;
4603;SDS011;2314;48.272;11.562;2023-08-06T10:21:30;1.70;;;0.50;;
4603;SDS011;2314;48.272;11.562;2023-08-06T10:23:57;1.60;;;0.60;;
4603;SDS011;2314;48.272;11.562;2023-08-06T10:26:26;1.50;;;0.50;;
4603;SDS011;2314;48.272;11.562;2023-08-06T10:28:54;2.13;;;0.53;;
4603;SDS011;2314;48.272;11.562;2023-08-06T10:34:34;3.30;;;0.50;;
4603;SDS011;2314;48.272;11.562;2023-08-06T10:37:21;1.70;;;0.60;;
4603;SDS011;2314;48.272;11.562;2023-08-06T10:39:48;2.70;;;0.57;;
4603;SDS011;2314;48.272;11.562;2023-08-06T10:42:20;3.83;;;0.60;;
4603;SDS011;2314;48.272;11.562;2023-08-06T10:47:42;1.63;;;0.50;;
4603;SDS011;2314;48.272;11.562;2023-08-06T10:50:11;2.20;;;0.70;;
4603;SDS011;2314;48.272;11.562;2023-08-06T10:52:41;1.90;;;0.70;;
4603;SDS011;2314;48.272;11.562;2023-08-06T10:55:08;1.60;;;0.57;;
4603;SDS011;2314;48.272;11.562;2023-08-06T10:57:36;2.33;;;0.70;;
4603;SDS011;2314;48.272;11.562;2023-08-06T11:00:04;2.57;;;0.60;;
4603;SDS011;2314;48.272;11.562;2023-08-06T11:02:33;1.57;;;0.60;;
4603;SDS011;2314;48.272;11.562;2023-08-06T11:05:09;2.83;;;0.50;;
4603;SDS011;2314;48.272;11.562;2023-08-06T11:07:38;3.03;;;0.70;;
4603;SDS011;2314;48.272;11.562;2023-08-06T11:10:06;1.50;;;0.50;;
4603;SDS011;2314;48.272;11.562;2023-08-06T11:12:35;1.70;;;0.70;;
4603;SDS011;2314;48.272;11.562;2023-08-06T11:15:03;1.50;;;0.50;;
4603;SDS011;2314;48.272;11.562;2023-08-06T11:17:32;1.90;;;0.60;;
4603;SDS011;2314;48.272;11.562;2023-08-06T11:20:02;1.40;;;0.50;;
4603;SDS011;2314;48.272;11.562;2023-08-06T11:22:32;2.23;;;0.50;;
4603;SDS011;2314;48.272;11.562;2023-08-06T11:25:00;1.80;;;0.60;;
4603;SDS011;2314;48.272;11.562;2023-08-06T11:27:28;2.30;;;0.70;;
4603;SDS011;2314;48.272;11.562;2023-08-06T11:29:55;1.40;;;0.50;;
4603;SDS011;2314;48.272;11.562;2023-08-06T11:32:23;1.70;;;0.50;;
4603;SDS011;2314;48.272;11.562;2023-08-06T11:34:52;1.50;;;0.50;;
4603;SDS011;2314;48.272;11.562;2023-08-06T11:37:21;1.50;;;0.50;;
4603;SDS011;2314;48.272;11.562;2023-08-06T11:39:52;3.20;;;0.50;;
4603;SDS011;2314;48.272;11.562;2023-08-06T11:42:19;1.40;;;0.50;;
4603;SDS011;2314;48.272;11.562;2023-08-06T11:44:47;1.50;;;0.50;;
4603;SDS011;2314;48.272;11.562;2023-08-06T11:47:16;2.90;;;0.50;;
4603;SDS011;2314;48.272;11.562;2023-08-06T11:49:44;3.70;;;0.60;;
4603;SDS011;2314;48.272;11.562;2023-08-06T11:52:14;1.40;;;0.50;;
4603;SDS011;2314;48.272;11.562;2023-08-06T11:54:46;1.40;;;0.50;;
4603;SDS011;2314;48.272;11.562;2023-08-06T11:57:27;1.40;;;0.50;;
4603;SDS011;2314;48.272;11.562;2023-08-06T11:59:58;2.40;;;0.60;;
4603;SDS011;2314;48.272;11.562;2023-08-06T12:02:31;1.50;;;0.53;;
4603;SDS011;2314;48.272;11.562;2023-08-06T12:05:02;1.47;;;0.50;;
4603;SDS011;2314;48.272;11.562;2023-08-06T12:07:32;6.43;;;0.60;;
4603;SDS011;2314;48.272;11.562;2023-08-06T12:10:04;1.70;;;0.53;;
4603;SDS011;2314;48.272;11.562;2023-08-06T12:12:34;2.97;;;0.80;;
4603;SDS011;2314;48.272;11.562;2023-08-06T12:15:04;1.57;;;0.50;;
4603;SDS011;2314;48.272;11.562;2023-08-06T12:17:33;4.80;;;0.50;;
4603;SDS011;2314;48.272;11.562;2023-08-06T12:20:01;1.50;;;0.50;;
4603;SDS011;2314;48.272;11.562;2023-08-06T12:22:30;2.37;;;0.50;;
4603;SDS011;2314;48.272;11.562;2023-08-06T12:25:00;1.83;;;0.50;;
4603;SDS011;2314;48.272;11.562;2023-08-06T12:27:28;1.77;;;0.60;;
4603;SDS011;2314;48.272;11.562;2023-08-06T12:29:56;1.50;;;0.50;;
4603;SDS011;2314;48.272;11.562;2023-08-06T12:32:23;1.50;;;0.50;;
4603;SDS011;2314;48.272;11.562;2023-08-06T12:34:50;1.43;;;0.50;;
4603;SDS011;2314;48.272;11.562;2023-08-06T12:37:17;2.70;;;0.60;;
4603;SDS011;2314;48.272;11.562;2023-08-06T12:39:44;1.40;;;0.50;;
4603;SDS011;2314;48.272;11.562;2023-08-06T12:42:11;2.63;;;0.60;;
4603;SDS011;2314;48.272;11.562;2023-08-06T12:44:39;1.60;;;0.50;;
4603;SDS011;2314;48.272;11.562;2023-08-06T12:47:07;1.50;;;0.80;;
4603;SDS011;2314;48.272;11.562;2023-08-06T12:49:35;2.17;;;0.53;;
4603;SDS011;2314;48.272;11.562;2023-08-06T12:52:02;2.80;;;0.50;;
4603;SDS011;2314;48.272;11.562;2023-08-06T12:54:32;1.67;;;0.63;;
4603;SDS011;2314;48.272;11.562;2023-08-06T12:57:01;1.60;;;0.50;;
4603;SDS011;2314;48.272;11.562;2023-08-06T12:59:29;1.50;;;0.50;;
4603;SDS011;2314;48.272;11.562;2023-08-06T13:01:56;1.40;;;0.50;;
4603;SDS011;2314;48.272;11.562;2023-08-06T13:04:25;1.43;;;0.50;;
4603;SDS011;2314;48.272;11.562;2023-08-06T13:06:52;1.50;;;0.50;;
4603;SDS011;2314;48.272;11.562;2023-08-06T13:09:19;1.50;;;0.50;;
4603;SDS011;2314;48.272;11.562;2023-08-06T13:11:46;1.40;;;0.50;;
4603;SDS011;2314;48.272;11.562;2023-08-06T13:14:15;1.50;;;0.50;;
4603;SDS011;2314;48.272;11.562;2023-08-06T13:16:43;1.67;;;0.50;;
4603;SDS011;2314;48.272;11.562;2023-08-06T13:19:10;1.93;;;0.60;;
4603;SDS011;2314;48.272;11.562;2023-08-06T13:21:58;1.80;;;0.67;;
4603;SDS011;2314;48.272;11.562;2023-08-06T13:24:33;1.50;;;0.50;;
4603;SDS011;2314;48.272;11.562;2023-08-06T13:27:00;1.60;;;0.50;;
4603;SDS011;2314;48.272;11.562;2023-08-06T13:29:28;1.50;;;0.50;;
4603;SDS011;2314;48.272;11.562;2023-08-06T13:31:55;1.70;;;0.50;;
4603;SDS011;2314;48.272;11.562;2023-08-06T13:34:22;1.53;;;0.50;;
4603;SDS011;2314;48.272;11.562;2023-08-06T13:36:49;1.50;;;0.50;;
4603;SDS011;2314;48.272;11.562;2023-08-06T13:39:17;2.27;;;0.50;;
4603;SDS011;2314;48.272;11.562;2023-08-06T13:41:44;2.00;;;0.60;;
4603;SDS011;2314;48.272;11.562;2023-08-06T13:44:12;1.50;;;0.50;;
4603;SDS011;2314;48.272;11.562;2023-08-06T13:46:40;1.43;;;0.57;;
4603;SDS011;2314;48.272;11.562;2023-08-06T13:49:08;1.50;;;0.50;;
4603;SDS011;2314;48.272;11.562;2023-08-06T13:51:35;1.93;;;0.70;;
4603;SDS011;2314;48.272;11.562;2023-08-06T13:54:03;2.50;;;0.70;;
4603;SDS011;2314;48.272;11.562;2023-08-06T13:56:33;3.00;;;0.70;;
4603;SDS011;2314;48.272;11.562;2023-08-06T13:59:02;1.40;;;0.50;;
4603;SDS011;2314;48.272;11.562;2023-08-06T14:01:30;1.50;;;0.50;;
4603;SDS011;2314;48.272;11.562;2023-08-06T14:03:57;1.40;;;0.50;;
4603;SDS011;2314;48.272;11.562;2023-08-06T14:06:24;1.70;;;0.60;;
4603;SDS011;2314;48.272;11.562;2023-08-06T14:08:51;2.87;;;0.60;;
4603;SDS011;2314;48.272;11.562;2023-08-06T14:11:18;1.60;;;0.50;;
4603;SDS011;2314;48.272;11.562;2023-08-06T14:13:46;1.70;;;0.63;;
4603;SDS011;2314;48.272;11.562;2023-08-06T14:16:14;1.50;;;0.60;;
4603;SDS011;2314;48.272;11.562;2023-08-06T14:18:41;2.20;;;0.50;;
4603;SDS011;2314;48.272;11.562;2023-08-06T14:21:08;1.43;;;0.50;;
4603;SDS011;2314;48.272;11.562;2023-08-06T14:23:35;1.50;;;0.50;;
4603;SDS011;2314;48.272;11.562;2023-08-06T14:26:02;1.70;;;0.50;;
4603;SDS011;2314;48.272;11.562;2023-08-06T14:28:29;1.83;;;0.50;;
4603;SDS011;2314;48.272;11.562;2023-08-06T14:30:57;2.00;;;0.50;;
4603;SDS011;2314;48.272;11.562;2023-08-06T14:33:24;3.00;;;0.60;;
4603;SDS011;2314;48.272;11.562;2023-08-06T14:35:51;1.60;;;0.50;;
4603;SDS011;2314;48.272;11.562;2023-08-06T14:38:18;2.80;;;0.70;;
4603;SDS011;2314;48.272;11.562;2023-08-06T14:40:45;2.63;;;0.60;;
4603;SDS011;2314;48.272;11.562;2023-08-06T14:43:12;1.70;;;0.70;;
4603;SDS011;2314;48.272;11.562;2023-08-06T14:45:39;1.60;;;0.50;;
4603;SDS011;2314;48.272;11.562;2023-08-06T14:48:08;1.60;;;0.60;;
4603;SDS011;2314;48.272;11.562;2023-08-06T14:50:35;3.03;;;0.93;;
4603;SDS011;2314;48.272;11.562;2023-08-06T14:53:04;2.57;;;0.70;;
4603;SDS011;2314;48.272;11.562;2023-08-06T14:55:31;1.60;;;0.60;;
4603;SDS011;2314;48.272;11.562;2023-08-06T14:57:58;2.00;;;0.77;;
4603;SDS011;2314;48.272;11.562;2023-08-06T15:00:27;3.33;;;0.70;;
4603;SDS011;2314;48.272;11.562;2023-08-06T15:02:54;1.60;;;0.50;;
4603;SDS011;2314;48.272;11.562;2023-08-06T15:05:23;2.40;;;0.80;;
4603;SDS011;2314;48.272;11.562;2023-08-06T15:07:51;1.90;;;0.70;;
4603;SDS011;2314;48.272;11.562;2023-08-06T15:10:19;3.37;;;0.83;;